Terminal Aerodrome Forecast
Issued by NWS Pueblo, CO

Home | Current Version | Previous Version | Text Only | Print | Product List | Glossary On
Versions: 1 2 3 4 5 6 7 8 9 10 11 12 13 14 15 16 17 18 19 20 21 22 23 24 25 26 27 28 29 30 31 32 33 34 35 36 37 38 39 40 41 42 43 44 45 46 47 48
000
FTUS45 KPUB 181721
TAFALS
TAF
KALS 181721Z 1818/1918 VRB05KT P6SM FEW100 BKN150
     FM181900 34010KT P6SM SCT070 BKN150
     FM182100 35011KT P6SM VCSH SCT050 BKN100
     FM190400 34009KT P6SM SCT050 SCT080
     FM190900 VRB06KT P6SM SCT060 BKN120=

USA.gov is the U.S. government's official web portal to all federal, state and local government web resources and services.